Recent forum postings ...
Today
Change wake turbulence after filing FP
Yesterday
KLM-VA site "not responding", is my flight toast?
3 days ago
Fly KLM Mon CTL
2021-04-09
SCHEDULE FLIGHT BOEING 737
2021-04-08
Law and rules in KLM VA
2021-04-04
Flying a Tour.


 
Aircraft IdentFlightrulesType of Flight
NumberType of AircraftWake turbulenceEquipmentTransponder Type
Departure AerodromeDeparture Time
Cruising speedFlight level
Route




Destination AerodromeTotal EETAlternative Aerodrome
Other information

Explanation of the IVAO flightplan

Schiphol (EHAM), Netherlands

METAR
EHAM 081325Z 25016KT 220V280 9999 FEW048 09/M01 Q1021 NOSIG

WINDWSW at 18 mph
VISIBILITY16 miles
CONDITIONS
CLOUDSpartly cloudy
TEMP48°F (9°C)
WIND CHILL41°F (5°C)
DEWPT30°F (-1°C)
HUMIDITY50%
BAROMETER1021 hPa (30.15 in Hg)

RUNWAYS

RunwayDesignatorSurfaceHeadingLengthWidthAltitudeILSILS-Freq.Glidescope Pitch
18CENTERASPHALT183.223295.5 ft45.11 ft-3.35 ftCAT III ILS/DME 36C108.753
18LEFTASPHALT183.253393.64 ft45.11 ft-3.35 ftCAT III ILS/DME 36R111.953

Bilbao (LEBB), Spain

METAR
LEBB 081330Z 15008KT 070V210 CAVOK 21/06 Q1017 NOSIG

WINDSSE at 9 mph
VISIBILITYgreater than 7 miles
CONDITIONS
CLOUDSclear skies
TEMP70°F (21°C)
DEWPT43°F (6°C)
HUMIDITY38%
BAROMETER1017 hPa (30.03 in Hg)

Registration TimeGroundspeedAltitudeTransponderHeadingLongitudeLatitudeOn ground
13:46 08-04-20210 kts-1 ft200034.7734152.30703Yes
13:490 kts-1 ft200034.7734152.30703Yes
13:520 kts-1 ft200034.7734152.30703Yes
13:550 kts-1 ft2000934.7728152.3064Yes
13:58114 kts-1 ft20002374.7667752.3004No
14:01284 kts7839 ft20001704.7553652.15094No